South Boston, Virginia
Current Conditions -  °F | °C
As of 10:35 AM on Friday 28 Nov 2014 (Local Time) from KW78 Reporting Station
Clear Clear  
Wind Chill: 32°   Ceiling: Unl
Heat Index: 39°   Visibility: 10mi
Dew Point: 19°   Wind: 10mph
Humidity: 45%   Direction: 320°NW
Pressure: 30.37"   Gusts: NA
Location:  36.7°N, 78.9°W
Report Text: KW78 281535Z AUTO 32009KT 10SM CLR 04/M07 A3037 RMK AO1 T00371073
Loading
Personal Weather Stations






























Interactive Weather Map New forecast layout! Learn more

10-Day Weather Forecast

Advertisements
Track Severe Weather on mobile